Time;durP1;ratioP1;P1;durP2;ratioP2;P2;SDS_P1;SDS_P2;PMS_P1;PMS_P2;Temp;Humidity;BMP_temperature;BMP_pressure;BME280_temperature;BME280_humidity;BME280_pressure;Samples;Min_cycle;Max_cycle;Signal;HPM_P1;HPM_P2
2023/08/29 00:02:05;;;;;;;23.52;12.80;;;12.80;99.90;;;;;;4971100;28;20043;-66
2023/08/29 00:04:31;;;;;;;18.65;13.15;;;12.80;99.90;;;;;;4977557;28;20062;-67
2023/08/29 00:06:56;;;;;;;19.13;13.13;;;12.70;99.90;;;;;;4977078;28;20034;-67
2023/08/29 00:09:22;;;;;;;20.00;12.93;;;12.70;99.90;;;;;;4977236;28;20027;-67
2023/08/29 00:11:48;;;;;;;21.58;14.30;;;12.60;99.90;;;;;;4976648;28;20520;-67
2023/08/29 00:14:13;;;;;;;19.70;14.63;;;12.70;99.90;;;;;;4979048;28;20061;-66
2023/08/29 00:16:39;;;;;;;24.92;14.95;;;12.60;99.90;;;;;;4976779;28;20085;-66
2023/08/29 00:19:05;;;;;;;18.25;13.63;;;12.60;99.90;;;;;;4978341;28;20058;-68
2023/08/29 00:21:31;;;;;;;19.70;13.73;;;12.50;99.90;;;;;;4976375;28;20515;-67
2023/08/29 00:23:56;;;;;;;20.85;13.82;;;12.50;99.90;;;;;;4975660;28;20030;-67
2023/08/29 00:26:22;;;;;;;21.63;14.77;;;12.50;99.90;;;;;;4971527;28;20034;-67
2023/08/29 00:28:49;;;;;;;25.02;15.63;;;12.50;99.90;;;;;;4977920;28;20407;-67
2023/08/29 00:31:15;;;;;;;22.33;15.85;;;12.50;99.90;;;;;;4972302;28;20145;-67
2023/08/29 00:33:40;;;;;;;22.23;15.57;;;12.50;99.90;;;;;;4972916;28;20050;-67
2023/08/29 00:36:06;;;;;;;22.40;15.88;;;12.50;99.90;;;;;;4977229;28;20034;-67
2023/08/29 00:38:31;;;;;;;24.60;14.65;;;12.60;99.90;;;;;;4978312;28;20140;-67
2023/08/29 00:40:59;;;;;;;21.88;13.35;;;12.60;99.90;;;;;;4979952;28;20050;-67
2023/08/29 00:43:25;;;;;;;21.80;13.15;;;12.60;99.90;;;;;;4982062;28;20015;-67
2023/08/29 00:45:50;;;;;;;19.55;13.32;;;12.60;99.90;;;;;;4982079;28;20386;-67
2023/08/29 00:48:16;;;;;;;21.67;13.82;;;12.60;99.90;;;;;;4980516;28;20046;-66
2023/08/29 00:50:42;;;;;;;18.08;13.82;;;12.60;99.90;;;;;;4980189;28;20046;-67
2023/08/29 00:53:08;;;;;;;20.50;13.18;;;12.70;99.90;;;;;;4979018;28;20104;-67
2023/08/29 00:55:34;;;;;;;20.75;14.02;;;12.70;99.90;;;;;;4979422;28;20041;-67
2023/08/29 00:58:04;;;;;;;17.48;12.73;;;12.70;99.90;;;;;;4977966;28;20061;-67
2023/08/29 01:00:30;;;;;;;17.88;12.45;;;12.80;99.90;;;;;;4985281;28;20030;-67
2023/08/29 01:02:57;;;;;;;17.95;14.07;;;12.80;99.90;;;;;;4971146;28;20070;-66
2023/08/29 01:05:23;;;;;;;22.52;15.25;;;12.80;99.90;;;;;;4980059;28;20089;-66
2023/08/29 01:07:50;;;;;;;18.63;14.35;;;12.90;99.90;;;;;;4981225;28;20042;-67
2023/08/29 01:10:17;;;;;;;22.05;15.18;;;12.90;99.90;;;;;;4979685;28;20405;-66
2023/08/29 01:12:51;;;;;;;21.13;15.25;;;12.90;99.90;;;;;;4978950;28;20078;-66
2023/08/29 01:15:25;;;;;;;21.17;15.10;;;13.00;99.90;;;;;;4980300;28;20097;-67
2023/08/29 01:17:56;;;;;;;18.45;13.48;;;13.00;99.90;;;;;;4980076;28;20089;-66
2023/08/29 01:20:24;;;;;;;17.48;12.07;;;13.10;99.90;;;;;;4981656;28;20041;-66
2023/08/29 01:23:07;;;;;;;15.20;11.80;;;13.10;99.90;;;;;;4978920;28;20085;-67
2023/08/29 01:26:10;;;;;;;14.20;11.07;;;13.20;99.90;;;;;;4980711;28;20122;-67
2023/08/29 01:28:37;;;;;;;15.57;10.30;;;13.20;99.90;;;;;;4979260;28;20062;-66
2023/08/29 01:31:04;;;;;;;14.07;10.68;;;13.20;99.90;;;;;;4980639;28;20038;-68
2023/08/29 01:33:30;;;;;;;15.18;11.07;;;13.20;99.90;;;;;;4980776;28;20508;-66
2023/08/29 01:35:56;;;;;;;16.35;11.13;;;13.20;99.90;;;;;;4980754;28;20053;-66
2023/08/29 01:38:22;;;;;;;16.02;11.32;;;13.20;99.90;;;;;;4978512;28;20113;-67
2023/08/29 01:40:47;;;;;;;15.02;11.05;;;13.20;99.90;;;;;;4981657;28;20038;-67
2023/08/29 01:43:13;;;;;;;17.73;11.05;;;13.20;99.90;;;;;;4977678;28;20061;-67
2023/08/29 01:45:38;;;;;;;24.58;11.50;;;13.20;99.90;;;;;;4980057;28;20026;-68
2023/08/29 01:48:04;;;;;;;16.67;10.65;;;13.20;99.90;;;;;;4979793;28;20038;-67
2023/08/29 01:50:33;;;;;;;18.20;10.13;;;13.20;99.90;;;;;;4979344;28;20035;-67
2023/08/29 01:53:00;;;;;;;20.10;11.10;;;13.20;99.90;;;;;;4980985;28;20068;-67
2023/08/29 01:55:26;;;;;;;28.85;11.50;;;13.20;99.90;;;;;;4977834;28;20042;-68
2023/08/29 01:57:53;;;;;;;17.40;10.77;;;13.20;99.90;;;;;;4979677;28;20719;-67
2023/08/29 02:10:31;;;;;;;16.85;12.13;;;13.30;99.90;;;;;;4968675;28;20053;-66
2023/08/29 02:12:57;;;;;;;20.55;11.82;;;13.30;99.90;;;;;;4982453;28;20435;-67
2023/08/29 02:15:22;;;;;;;14.40;10.55;;;13.30;99.90;;;;;;4974942;28;20061;-67
2023/08/29 02:17:48;;;;;;;14.90;10.88;;;13.30;99.90;;;;;;5000195;28;20484;-68
2023/08/29 02:20:13;;;;;;;13.20;9.32;;;13.30;99.90;;;;;;4981927;28;20504;-66
2023/08/29 02:22:39;;;;;;;13.13;9.23;;;13.20;99.90;;;;;;4977990;28;20547;-67
2023/08/29 02:25:05;;;;;;;13.57;9.30;;;13.20;99.90;;;;;;4984545;28;20045;-67
2023/08/29 02:27:34;;;;;;;14.30;10.68;;;13.20;99.90;;;;;;4980397;28;20145;-66
2023/08/29 02:30:00;;;;;;;15.80;10.85;;;13.10;99.90;;;;;;4977824;28;20053;-67
2023/08/29 02:32:25;;;;;;;18.02;10.80;;;13.20;99.90;;;;;;4975173;28;20497;-67
2023/08/29 02:34:51;;;;;;;15.32;10.75;;;13.10;99.90;;;;;;4980547;28;20030;-67
2023/08/29 02:37:17;;;;;;;18.00;11.10;;;13.10;99.90;;;;;;4978721;28;20081;-66
2023/08/29 02:39:42;;;;;;;17.52;11.43;;;13.10;99.90;;;;;;4976277;28;20039;-66
2023/08/29 02:42:08;;;;;;;19.40;11.88;;;13.10;99.90;;;;;;4977618;28;20025;-67
2023/08/29 02:44:33;;;;;;;20.25;11.80;;;13.10;99.90;;;;;;4975823;28;20046;-67
2023/08/29 02:46:59;;;;;;;16.77;12.77;;;13.10;99.90;;;;;;4990890;28;20114;-66
2023/08/29 02:49:24;;;;;;;15.88;12.95;;;13.10;99.90;;;;;;4982986;28;20531;-67
2023/08/29 02:51:50;;;;;;;19.92;11.75;;;13.10;99.90;;;;;;4978076;28;20594;-66
2023/08/29 02:54:18;;;;;;;18.70;13.63;;;13.10;99.90;;;;;;4976204;28;20042;-66
2023/08/29 02:56:43;;;;;;;24.10;12.63;;;13.10;99.90;;;;;;4976648;28;20031;-67
2023/08/29 02:59:09;;;;;;;17.40;12.65;;;13.00;99.90;;;;;;4977809;28;20034;-66
2023/08/29 03:01:34;;;;;;;22.38;13.80;;;13.00;99.90;;;;;;4969243;28;20098;-66
2023/08/29 03:04:00;;;;;;;19.15;13.13;;;12.90;99.90;;;;;;4975065;28;20034;-66
2023/08/29 03:06:25;;;;;;;20.70;14.10;;;12.80;99.90;;;;;;4997023;28;20037;-67
2023/08/29 03:08:51;;;;;;;22.08;14.35;;;12.80;99.90;;;;;;4977269;28;20494;-68
2023/08/29 03:11:16;;;;;;;19.65;14.35;;;12.70;99.90;;;;;;4976844;28;20256;-66
2023/08/29 03:13:42;;;;;;;17.70;13.85;;;12.70;99.90;;;;;;4977037;28;20149;-66
2023/08/29 03:16:14;;;;;;;22.55;14.48;;;12.70;99.90;;;;;;4979798;28;20044;-67
2023/08/29 03:18:40;;;;;;;18.40;13.85;;;12.70;99.90;;;;;;4978120;28;20049;-66
2023/08/29 03:21:06;;;;;;;23.20;12.93;;;12.60;99.90;;;;;;4979385;28;20030;-66
2023/08/29 03:23:33;;;;;;;25.67;17.67;;;12.60;99.90;;;;;;4975320;28;20405;-66
2023/08/29 03:26:03;;;;;;;26.05;16.90;;;12.60;99.90;;;;;;4977084;28;20026;-67
2023/08/29 03:28:29;;;;;;;24.95;15.68;;;12.60;99.90;;;;;;4978928;28;20061;-67
2023/08/29 03:30:55;;;;;;;21.33;14.98;;;12.60;99.90;;;;;;4977870;28;20120;-67
2023/08/29 03:33:20;;;;;;;22.27;15.15;;;12.60;99.90;;;;;;4975795;28;20554;-66
2023/08/29 03:35:56;;;;;;;22.58;15.30;;;12.50;99.90;;;;;;4976720;28;20396;-66
2023/08/29 03:38:21;;;;;;;24.95;15.30;;;12.50;99.90;;;;;;4977688;28;20027;-66
2023/08/29 03:40:55;;;;;;;21.67;13.95;;;12.50;99.90;;;;;;4978826;28;20054;-66
2023/08/29 03:43:21;;;;;;;24.48;15.77;;;12.50;99.90;;;;;;4978742;28;20157;-67
2023/08/29 03:45:46;;;;;;;21.85;15.52;;;12.40;99.90;;;;;;4978751;28;20046;-65
2023/08/29 03:48:12;;;;;;;19.95;15.45;;;12.40;99.90;;;;;;4976079;28;20444;-66
2023/08/29 03:50:37;;;;;;;24.27;15.05;;;12.30;99.90;;;;;;4976634;28;20035;-67
2023/08/29 03:53:03;;;;;;;21.98;14.60;;;12.30;99.90;;;;;;4976893;28;20689;-66
2023/08/29 03:55:29;;;;;;;19.85;14.13;;;12.20;99.90;;;;;;4975108;28;20031;-66
2023/08/29 03:57:55;;;;;;;22.92;14.70;;;12.20;99.90;;;;;;4975925;28;20046;-67
2023/08/29 04:00:20;;;;;;;24.45;16.55;;;12.20;99.90;;;;;;4976781;28;20022;-66
2023/08/29 04:02:46;;;;;;;24.20;16.08;;;12.20;99.90;;;;;;4967732;28;20042;-67
2023/08/29 04:05:14;;;;;;;22.95;16.15;;;12.20;99.90;;;;;;4976772;28;20022;-67
2023/08/29 04:07:40;;;;;;;23.27;15.52;;;12.20;99.90;;;;;;4976294;28;20014;-67
2023/08/29 04:10:06;;;;;;;24.55;16.73;;;12.10;99.90;;;;;;4976804;28;20045;-66
2023/08/29 04:12:31;;;;;;;26.10;16.75;;;12.20;99.90;;;;;;4981977;28;20126;-67
2023/08/29 04:14:57;;;;;;;29.08;19.50;;;12.10;99.90;;;;;;4980867;28;20125;-68
2023/08/29 04:17:22;;;;;;;27.30;18.85;;;12.10;99.90;;;;;;4982497;28;20042;-67
2023/08/29 04:19:48;;;;;;;34.25;19.40;;;12.10;99.90;;;;;;4982638;28;20034;-66
2023/08/29 04:22:15;;;;;;;29.33;18.33;;;12.10;99.90;;;;;;4981541;28;20038;-66
2023/08/29 04:24:40;;;;;;;26.02;17.05;;;12.10;99.90;;;;;;4982278;28;20101;-67
2023/08/29 04:27:06;;;;;;;25.00;17.45;;;12.10;99.90;;;;;;4979954;28;20113;-67
2023/08/29 04:29:31;;;;;;;27.98;16.15;;;12.10;99.90;;;;;;4982297;28;20150;-67
2023/08/29 04:31:57;;;;;;;25.92;15.95;;;12.00;99.90;;;;;;4979852;28;20034;-67
2023/08/29 04:34:23;;;;;;;30.33;17.80;;;12.00;99.90;;;;;;4995259;28;21768;-66
2023/08/29 04:36:49;;;;;;;25.13;16.58;;;12.00;99.90;;;;;;4979380;28;20053;-68
2023/08/29 04:39:15;;;;;;;27.90;18.40;;;12.00;99.90;;;;;;4978334;28;20027;-67
2023/08/29 04:41:40;;;;;;;25.63;16.83;;;12.00;99.90;;;;;;4980928;28;20019;-66
2023/08/29 04:44:06;;;;;;;28.05;17.33;;;12.00;99.90;;;;;;4986259;28;20114;-66
2023/08/29 04:46:31;;;;;;;29.48;19.55;;;12.10;99.90;;;;;;4978069;28;20063;-66
2023/08/29 04:48:57;;;;;;;24.20;16.33;;;12.00;99.90;;;;;;4980436;28;20045;-68
2023/08/29 04:51:23;;;;;;;25.13;15.07;;;12.00;99.90;;;;;;4983274;28;20331;-68
2023/08/29 04:53:48;;;;;;;20.42;14.07;;;12.00;99.90;;;;;;4980623;28;20034;-66
2023/08/29 04:56:14;;;;;;;21.85;14.77;;;12.00;99.90;;;;;;4980598;28;20088;-67
2023/08/29 04:58:40;;;;;;;21.77;14.05;;;12.00;99.90;;;;;;4979851;28;20121;-67
2023/08/29 05:01:06;;;;;;;23.15;15.60;;;12.00;99.90;;;;;;4982250;28;20382;-66
2023/08/29 05:03:32;;;;;;;21.60;14.45;;;12.00;99.90;;;;;;4991889;28;20043;-66
2023/08/29 05:05:58;;;;;;;27.27;16.13;;;12.00;99.90;;;;;;4981281;28;20038;-67
2023/08/29 05:08:23;;;;;;;24.35;16.27;;;12.10;99.90;;;;;;4981399;28;20046;-67
2023/08/29 05:10:49;;;;;;;24.10;15.45;;;12.10;99.90;;;;;;4978385;28;20117;-66
2023/08/29 05:13:15;;;;;;;24.33;16.08;;;12.10;99.90;;;;;;4979532;28;20030;-67
2023/08/29 05:15:41;;;;;;;20.45;14.35;;;12.20;99.90;;;;;;4979493;28;20027;-67
2023/08/29 05:18:07;;;;;;;23.15;14.98;;;12.20;99.90;;;;;;4980548;28;20037;-66
2023/08/29 05:20:32;;;;;;;19.38;14.68;;;12.20;99.90;;;;;;4982134;28;20027;-67
2023/08/29 05:22:59;;;;;;;22.50;15.90;;;12.30;99.90;;;;;;4979453;28;20030;-67
2023/08/29 05:25:24;;;;;;;24.42;15.35;;;12.30;99.90;;;;;;4981629;28;20117;-66
2023/08/29 05:27:50;;;;;;;22.10;16.05;;;12.40;99.90;;;;;;4979576;28;20149;-67
2023/08/29 05:30:16;;;;;;;24.75;15.63;;;12.40;99.90;;;;;;4981453;28;20033;-68
2023/08/29 05:32:42;;;;;;;24.73;16.23;;;12.50;99.90;;;;;;4980544;28;20185;-67
2023/08/29 05:35:08;;;;;;;27.25;18.83;;;12.50;99.90;;;;;;4980162;28;20575;-67
2023/08/29 05:37:33;;;;;;;25.95;17.40;;;12.60;99.90;;;;;;4984538;28;20037;-67
2023/08/29 05:39:59;;;;;;;30.10;18.80;;;12.70;99.90;;;;;;4979728;28;20240;-67
2023/08/29 05:42:25;;;;;;;25.75;17.83;;;12.70;99.90;;;;;;4980494;28;20149;-67
2023/08/29 05:44:51;;;;;;;27.58;18.83;;;12.80;99.90;;;;;;4980643;28;20110;-67
2023/08/29 05:47:16;;;;;;;29.38;19.17;;;12.80;99.90;;;;;;4980916;28;20129;-67
2023/08/29 05:49:42;;;;;;;28.20;19.33;;;12.90;99.90;;;;;;4979217;28;20038;-67
2023/08/29 05:52:07;;;;;;;28.25;20.60;;;13.00;99.90;;;;;;4979823;28;20034;-67
2023/08/29 05:54:36;;;;;;;25.17;19.08;;;13.10;99.90;;;;;;4978201;28;20034;-67
2023/08/29 05:57:02;;;;;;;16.80;12.18;;;13.10;99.90;;;;;;4978462;28;20038;-66
2023/08/29 05:59:28;;;;;;;13.93;10.23;;;13.20;99.90;;;;;;4994373;28;20117;-68
2023/08/29 06:01:54;;;;;;;13.00;10.02;;;13.20;99.90;;;;;;4969876;28;20719;-67
2023/08/29 06:04:20;;;;;;;15.20;11.65;;;13.20;99.90;;;;;;4978161;28;20034;-68
2023/08/29 06:06:47;;;;;;;12.80;9.57;;;13.30;99.90;;;;;;4979221;28;20117;-67
2023/08/29 06:09:12;;;;;;;14.18;10.50;;;13.30;99.90;;;;;;4979783;28;20711;-66
2023/08/29 06:11:38;;;;;;;20.30;11.93;;;13.40;99.90;;;;;;4977437;28;20027;-67
2023/08/29 06:14:04;;;;;;;16.67;11.82;;;13.50;99.90;;;;;;4979018;28;20035;-67
2023/08/29 06:16:30;;;;;;;14.25;11.60;;;13.60;99.90;;;;;;4977922;28;20038;-66
2023/08/29 06:18:55;;;;;;;15.13;11.65;;;13.70;99.90;;;;;;4978237;28;20054;-67
2023/08/29 06:21:21;;;;;;;11.98;10.10;;;13.80;99.90;;;;;;4982543;28;20030;-67
2023/08/29 06:23:46;;;;;;;10.93;8.90;;;13.90;99.90;;;;;;4979610;28;20551;-64
2023/08/29 06:26:12;;;;;;;14.70;10.68;;;14.00;99.90;;;;;;4981460;28;21229;-67
2023/08/29 06:28:37;;;;;;;11.23;8.95;;;14.00;99.90;;;;;;4978282;28;20670;-65
2023/08/29 06:31:08;;;;;;;15.40;11.02;;;14.10;99.90;;;;;;4979934;28;20085;-67
2023/08/29 06:33:37;;;;;;;20.52;13.52;;;14.30;99.90;;;;;;4979196;28;20042;-67
2023/08/29 06:36:03;;;;;;;19.35;11.43;;;14.50;99.90;;;;;;4976985;28;20069;-66
2023/08/29 06:38:30;;;;;;;11.68;8.23;;;14.70;99.90;;;;;;4978344;28;20077;-67
2023/08/29 06:40:56;;;;;;;11.43;8.35;;;14.80;99.90;;;;;;4979151;28;20022;-67
2023/08/29 06:43:23;;;;;;;16.80;10.20;;;14.90;99.90;;;;;;4984797;28;20105;-66
2023/08/29 06:45:48;;;;;;;12.23;8.93;;;15.00;99.90;;;;;;4978663;28;20046;-64
2023/08/29 06:48:14;;;;;;;16.63;9.38;;;14.90;99.90;;;;;;4979845;28;20038;-64
2023/08/29 06:50:40;;;;;;;16.80;10.68;;;15.00;99.90;;;;;;4978671;28;20054;-67
2023/08/29 06:53:06;;;;;;;26.05;16.70;;;15.10;99.90;;;;;;4976474;28;20054;-67
2023/08/29 06:55:34;;;;;;;24.27;14.88;;;15.10;99.90;;;;;;4978747;28;20484;-66
2023/08/29 06:58:00;;;;;;;27.27;16.05;;;15.30;99.90;;;;;;4981652;28;20031;-67
2023/08/29 07:00:26;;;;;;;30.20;18.35;;;15.40;99.90;;;;;;4978566;28;20041;-68
2023/08/29 07:02:52;;;;;;;31.55;18.02;;;15.50;99.90;;;;;;4969203;28;20043;-67
2023/08/29 07:05:17;;;;;;;36.25;18.25;;;15.60;99.90;;;;;;4978714;28;20160;-69
2023/08/29 07:07:43;;;;;;;31.33;18.80;;;15.80;99.90;;;;;;4977018;28;20459;-67
2023/08/29 07:10:10;;;;;;;33.35;19.45;;;15.90;99.90;;;;;;4976056;28;20515;-67
2023/08/29 07:12:36;;;;;;;35.45;20.30;;;15.90;99.90;;;;;;4977924;28;20030;-67
2023/08/29 07:15:02;;;;;;;37.60;22.05;;;16.00;99.90;;;;;;4978414;28;20040;-67
2023/08/29 07:17:28;;;;;;;37.80;20.73;;;16.10;99.90;;;;;;4977945;28;20022;-65
2023/08/29 07:19:53;;;;;;;39.72;21.10;;;16.20;99.90;;;;;;4978516;28;20424;-64
2023/08/29 07:22:19;;;;;;;43.10;23.15;;;16.30;99.90;;;;;;4980498;28;20033;-67
2023/08/29 07:24:44;;;;;;;38.92;21.65;;;16.30;99.90;;;;;;4978115;28;20027;-67
2023/08/29 07:27:10;;;;;;;36.55;21.45;;;16.20;99.90;;;;;;4977311;28;20053;-67
2023/08/29 07:29:36;;;;;;;36.20;21.00;;;16.10;99.90;;;;;;4978141;28;20034;-67
2023/08/29 07:32:02;;;;;;;34.65;20.10;;;16.20;99.90;;;;;;4977128;28;20744;-67
2023/08/29 07:34:28;;;;;;;37.15;20.80;;;16.30;99.90;;;;;;4978672;28;20042;-65
2023/08/29 07:36:53;;;;;;;36.03;21.35;;;16.40;99.90;;;;;;4979914;28;20116;-67
2023/08/29 07:39:20;;;;;;;34.60;21.05;;;16.40;99.90;;;;;;4979359;28;20042;-67
2023/08/29 07:41:46;;;;;;;32.13;19.92;;;16.50;99.90;;;;;;4975794;28;20101;-65
2023/08/29 07:44:11;;;;;;;34.67;21.40;;;16.70;99.90;;;;;;4977236;28;20118;-65
2023/08/29 07:46:37;;;;;;;34.90;20.45;;;16.70;99.90;;;;;;4980736;28;20030;-65
2023/08/29 07:49:02;;;;;;;36.90;19.92;;;16.60;99.90;;;;;;4979929;28;20062;-67
2023/08/29 07:51:28;;;;;;;37.80;19.45;;;16.70;99.90;;;;;;4976543;28;20034;-67
2023/08/29 07:53:53;;;;;;;33.03;19.55;;;16.60;99.90;;;;;;4977049;28;20121;-67
2023/08/29 07:56:19;;;;;;;37.85;19.05;;;16.50;99.90;;;;;;4977495;28;20416;-67
2023/08/29 07:58:44;;;;;;;32.03;18.65;;;16.40;99.90;;;;;;4978133;28;20189;-65
2023/08/29 08:01:11;;;;;;;34.38;19.55;;;16.60;99.90;;;;;;4975238;28;20042;-67
2023/08/29 08:03:38;;;;;;;37.08;19.20;;;16.70;99.90;;;;;;4971268;28;20129;-67
2023/08/29 08:06:03;;;;;;;31.50;19.73;;;16.80;99.90;;;;;;4976214;28;20026;-67
2023/08/29 08:08:29;;;;;;;31.63;17.40;;;17.00;99.90;;;;;;4980735;28;20093;-67
2023/08/29 08:10:55;;;;;;;31.83;18.20;;;17.10;99.90;;;;;;4977386;28;20038;-65
2023/08/29 08:13:21;;;;;;;33.50;18.02;;;17.20;99.90;;;;;;4978944;28;20034;-65
2023/08/29 08:15:47;;;;;;;29.75;17.55;;;17.40;99.90;;;;;;4976528;28;20034;-66
2023/08/29 08:18:13;;;;;;;32.55;17.95;;;17.60;99.90;;;;;;4978172;28;20026;-67
2023/08/29 08:20:38;;;;;;;31.52;18.63;;;17.40;99.90;;;;;;4980877;28;20500;-65
2023/08/29 08:23:06;;;;;;;30.25;17.73;;;17.50;99.90;;;;;;4976711;28;20035;-67
2023/08/29 08:25:31;;;;;;;29.58;18.45;;;17.70;99.90;;;;;;4979240;28;20034;-67
2023/08/29 08:27:57;;;;;;;31.27;19.65;;;17.80;99.90;;;;;;4978384;28;20034;-65
2023/08/29 08:30:23;;;;;;;32.83;19.17;;;17.90;99.90;;;;;;4977319;28;20035;-65
2023/08/29 08:32:49;;;;;;;36.58;20.00;;;18.10;99.90;;;;;;4976369;28;20043;-65
2023/08/29 08:35:14;;;;;;;26.90;18.05;;;18.40;99.90;;;;;;4974561;28;20062;-64
2023/08/29 08:37:40;;;;;;;27.92;17.40;;;18.50;99.90;;;;;;4978007;28;20027;-65
2023/08/29 08:40:09;;;;;;;28.58;19.15;;;18.60;99.90;;;;;;4977319;28;20062;-65
2023/08/29 08:42:44;;;;;;;31.52;20.85;;;18.80;99.90;;;;;;4982295;28;20062;-64
2023/08/29 08:45:10;;;;;;;26.20;18.05;;;19.00;99.90;;;;;;4976952;28;20037;-69
2023/08/29 08:47:36;;;;;;;26.13;17.90;;;19.10;99.90;;;;;;4977805;28;20027;-65
2023/08/29 08:50:03;;;;;;;27.20;18.17;;;19.30;99.90;;;;;;4980763;28;21163;-65
2023/08/29 08:52:33;;;;;;;31.13;18.42;;;19.10;99.90;;;;;;4975509;28;20408;-64
2023/08/29 08:54:59;;;;;;;28.92;19.60;;;19.50;99.90;;;;;;4994160;28;20062;-64
2023/08/29 08:57:25;;;;;;;24.77;17.23;;;19.40;99.90;;;;;;4994431;28;20584;-65
2023/08/29 08:59:51;;;;;;;26.75;17.10;;;19.30;99.90;;;;;;4978394;28;20034;-64
2023/08/29 09:02:18;;;;;;;28.27;18.30;;;19.50;99.90;;;;;;4972806;28;20030;-65
2023/08/29 09:04:44;;;;;;;24.45;16.92;;;19.30;99.90;;;;;;4977306;28;20027;-65
2023/08/29 09:07:09;;;;;;;25.55;17.23;;;19.10;99.90;;;;;;4978432;28;20023;-65
2023/08/29 09:09:35;;;;;;;24.48;18.17;;;19.20;99.90;;;;;;4979104;28;20039;-65
2023/08/29 09:12:00;;;;;;;24.33;17.13;;;19.30;99.90;;;;;;4982568;28;20038;-68
2023/08/29 09:14:27;;;;;;;29.73;16.95;;;19.60;99.90;;;;;;4980222;28;20034;-65
2023/08/29 09:16:56;;;;;;;21.20;15.55;;;19.70;99.90;;;;;;4978668;28;20041;-65
2023/08/29 09:19:23;;;;;;;24.98;16.90;;;20.00;99.90;;;;;;4980991;28;20019;-65
2023/08/29 09:21:49;;;;;;;22.65;15.88;;;20.00;99.90;;;;;;4977912;28;20041;-64
2023/08/29 09:24:35;;;;;;;20.02;13.80;;;20.10;99.90;;;;;;4978602;28;20158;-64
2023/08/29 09:27:11;;;;;;;22.33;14.48;;;20.60;99.90;;;;;;4980645;28;20030;-65
2023/08/29 09:29:37;;;;;;;20.65;14.23;;;20.70;99.90;;;;;;4978247;28;20038;-66
2023/08/29 09:32:16;;;;;;;25.55;15.10;;;20.70;99.90;;;;;;4980399;28;20031;-65
2023/08/29 09:34:42;;;;;;;20.13;14.13;;;20.60;99.90;;;;;;4985305;28;20117;-65
2023/08/29 09:37:10;;;;;;;18.92;13.05;;;20.50;99.90;;;;;;4991500;28;20052;-64
2023/08/29 09:39:37;;;;;;;18.67;13.27;;;20.70;99.90;;;;;;4978309;28;20118;-65
2023/08/29 09:42:10;;;;;;;20.73;12.48;;;20.70;99.90;;;;;;4983753;28;20117;-66
2023/08/29 09:44:37;;;;;;;18.20;11.90;;;20.60;99.90;;;;;;4981354;28;20026;-65
2023/08/29 09:47:05;;;;;;;14.23;10.95;;;21.00;99.90;;;;;;4978184;28;20031;-67
2023/08/29 09:49:48;;;;;;;17.73;10.35;;;20.70;99.90;;;;;;4976879;28;21223;-66
2023/08/29 09:52:14;;;;;;;21.40;11.15;;;20.80;99.90;;;;;;4981601;28;20459;-67
2023/08/29 09:54:50;;;;;;;14.82;10.95;;;21.20;99.90;;;;;;4976913;28;20041;-67
2023/08/29 09:57:22;;;;;;;14.10;9.82;;;21.10;99.90;;;;;;4978905;28;20120;-66
2023/08/29 09:59:51;;;;;;;14.52;9.85;;;21.10;99.90;;;;;;4979309;28;20041;-64
2023/08/29 10:02:20;;;;;;;13.93;9.07;;;21.20;99.90;;;;;;4968436;28;20090;-68
2023/08/29 10:04:52;;;;;;;15.82;8.85;;;21.30;99.90;;;;;;4979223;28;20035;-67
2023/08/29 10:07:26;;;;;;;14.82;9.82;;;21.30;99.90;;;;;;4976791;28;20042;-68
2023/08/29 10:09:52;;;;;;;14.32;10.25;;;20.90;99.90;;;;;;4979720;28;20030;-64
2023/08/29 10:12:19;;;;;;;13.15;9.40;;;20.80;99.90;;;;;;4981488;28;20102;-65
2023/08/29 10:14:46;;;;;;;13.88;9.90;;;20.90;99.90;;;;;;4978536;28;20073;-66
2023/08/29 10:17:13;;;;;;;16.33;9.25;;;20.80;99.90;;;;;;4976446;28;20031;-68
2023/08/29 10:19:40;;;;;;;10.88;7.97;;;20.80;99.90;;;;;;4976354;28;21060;-68
2023/08/29 10:22:09;;;;;;;14.90;8.18;;;20.80;99.90;;;;;;4978754;28;20118;-64
2023/08/29 10:24:36;;;;;;;10.10;7.53;;;21.00;99.90;;;;;;4976876;28;20031;-66
2023/08/29 10:27:03;;;;;;;9.98;6.82;;;21.30;99.90;;;;;;4979996;28;20101;-66
2023/08/29 10:29:30;;;;;;;6.95;5.68;;;21.30;99.90;;;;;;4981329;28;20118;-65
2023/08/29 10:31:57;;;;;;;10.85;6.30;;;21.20;99.90;;;;;;4988155;28;20046;-65
2023/08/29 10:34:26;;;;;;;11.05;5.35;;;21.40;99.90;;;;;;4979331;28;20034;-66
2023/08/29 10:36:52;;;;;;;6.88;4.72;;;21.70;99.90;;;;;;4982604;28;20119;-66
2023/08/29 10:39:19;;;;;;;8.02;5.13;;;22.00;99.90;;;;;;4976432;28;20503;-65
2023/08/29 10:41:46;;;;;;;6.97;5.32;;;22.40;99.90;;;;;;4976912;28;20069;-66
2023/08/29 10:44:31;;;;;;;7.50;4.80;;;22.40;99.90;;;;;;4981343;28;20041;-66
2023/08/29 10:47:23;;;;;;;5.40;4.00;;;22.40;99.90;;;;;;4979756;28;20027;-65
2023/08/29 10:49:56;;;;;;;7.18;4.93;;;22.70;99.90;;;;;;4977064;28;20043;-65
2023/08/29 10:52:22;;;;;;;6.68;5.10;;;22.50;99.90;;;;;;4976524;28;20054;-65
2023/08/29 10:55:02;;;;;;;6.82;5.03;;;22.60;99.90;;;;;;4979573;28;20121;-65
2023/08/29 10:57:29;;;;;;;9.23;4.97;;;22.30;99.90;;;;;;4976120;28;20038;-66
2023/08/29 10:59:56;;;;;;;6.43;5.03;;;22.30;99.90;;;;;;4979361;28;20049;-66
2023/08/29 11:02:23;;;;;;;7.97;5.22;;;22.10;99.90;;;;;;4974420;28;21235;-65
2023/08/29 11:05:13;;;;;;;6.25;4.13;;;22.00;99.90;;;;;;4978195;28;20038;-66
2023/08/29 11:07:40;;;;;;;7.90;4.40;;;22.00;99.90;;;;;;4973566;28;20451;-65
2023/08/29 11:10:15;;;;;;;6.25;4.28;;;22.30;99.90;;;;;;4977574;28;20170;-65
2023/08/29 11:13:07;;;;;;;5.57;4.10;;;22.10;99.90;;;;;;4977098;28;20053;-66
2023/08/29 11:15:51;;;;;;;5.93;4.05;;;21.70;99.90;;;;;;4976206;28;20090;-65
2023/08/29 11:18:30;;;;;;;5.97;4.25;;;21.60;99.90;;;;;;4974192;28;20077;-65
2023/08/29 11:20:57;;;;;;;6.70;4.60;;;21.50;99.90;;;;;;4979934;28;20694;-65
2023/08/29 11:23:22;;;;;;;12.55;3.75;;;21.30;99.90;;;;;;4980119;28;20053;-64
2023/08/29 11:25:51;;;;;;;5.00;3.75;;;21.20;99.90;;;;;;4978694;28;20053;-65
2023/08/29 11:28:20;;;;;;;14.38;3.95;;;21.20;99.90;;;;;;4993751;28;20089;-66
2023/08/29 11:30:46;;;;;;;4.50;2.80;;;20.90;99.90;;;;;;4975755;28;20038;-65
2023/08/29 11:33:13;;;;;;;4.55;3.63;;;21.00;99.90;;;;;;4980465;28;20144;-65
2023/08/29 11:35:38;;;;;;;5.18;3.22;;;21.10;99.90;;;;;;4976884;28;20504;-65
2023/08/29 11:38:07;;;;;;;8.82;4.30;;;21.10;99.90;;;;;;4974867;28;20026;-65
2023/08/29 11:40:34;;;;;;;6.25;4.20;;;21.30;99.90;;;;;;4973136;28;20080;-64
2023/08/29 11:43:00;;;;;;;7.60;4.40;;;21.60;99.90;;;;;;4974852;28;20058;-65
2023/08/29 11:45:29;;;;;;;5.45;3.88;;;21.20;99.90;;;;;;4973230;28;20077;-66
2023/08/29 11:47:55;;;;;;;6.10;3.50;;;21.20;99.90;;;;;;4974973;28;20018;-66
2023/08/29 11:50:22;;;;;;;7.47;3.47;;;21.50;99.90;;;;;;4976636;28;20037;-65
2023/08/29 11:52:47;;;;;;;7.10;4.40;;;21.60;99.90;;;;;;4971280;28;20119;-65
2023/08/29 11:55:15;;;;;;;4.95;3.55;;;21.70;99.90;;;;;;4980682;28;20043;-65
2023/08/29 11:57:44;;;;;;;6.15;3.28;;;21.50;99.90;;;;;;4977106;28;20023;-65
2023/08/29 12:00:13;;;;;;;4.60;3.63;;;21.70;99.90;;;;;;4978436;28;20088;-65
2023/08/29 12:02:39;;;;;;;9.55;2.85;;;22.00;99.90;;;;;;4969373;28;20500;-65
2023/08/29 12:05:10;;;;;;;7.82;2.97;;;21.70;99.90;;;;;;4979610;28;20070;-66
2023/08/29 12:07:36;;;;;;;4.57;2.78;;;21.90;99.30;;;;;;4979636;28;20027;-64
2023/08/29 12:10:13;;;;;;;7.38;2.75;;;22.00;98.90;;;;;;4977772;28;20077;-66
2023/08/29 12:12:39;;;;;;;2.83;1.77;;;22.00;99.90;;;;;;4975208;28;20034;-65
2023/08/29 12:15:10;;;;;;;2.55;1.98;;;22.70;98.60;;;;;;4975575;28;20081;-65
2023/08/29 12:17:42;;;;;;;3.38;1.80;;;23.10;95.90;;;;;;4978024;28;20492;-66
2023/08/29 12:20:13;;;;;;;3.45;2.25;;;23.10;95.40;;;;;;4978081;28;20030;-65
2023/08/29 12:22:42;;;;;;;4.15;2.47;;;23.10;96.60;;;;;;4976719;28;20467;-65
2023/08/29 12:25:09;;;;;;;10.30;2.70;;;23.30;95.30;;;;;;4976817;28;20081;-66
2023/08/29 12:27:35;;;;;;;4.20;1.95;;;23.30;96.50;;;;;;4977032;28;20121;-65
2023/08/29 12:30:00;;;;;;;6.25;2.40;;;23.50;96.00;;;;;;4974767;28;20022;-65
2023/08/29 12:32:27;;;;;;;2.92;2.20;;;23.40;94.60;;;;;;4976355;28;20054;-66
2023/08/29 12:34:55;;;;;;;2.65;1.88;;;23.40;95.30;;;;;;4980019;28;20619;-65
2023/08/29 12:37:20;;;;;;;3.67;2.55;;;23.30;95.10;;;;;;4978298;28;20064;-65
2023/08/29 12:39:46;;;;;;;2.70;1.98;;;23.20;94.80;;;;;;4979110;28;20065;-66
2023/08/29 12:42:12;;;;;;;4.00;2.10;;;23.30;94.70;;;;;;4979700;28;20042;-65